sensor_id;sensor_type;location;lat;lon;timestamp;pressure;altitude;pressure_sealevel;temperature;humidity
32083;BME280;18597;48.328;7.932;2023-02-13T00:02:17;101438.78;;;3.70;100.00
32083;BME280;18597;48.328;7.932;2023-02-13T00:04:43;101440.94;;;3.23;100.00
32083;BME280;18597;48.328;7.932;2023-02-13T00:07:11;101449.09;;;2.81;100.00
32083;BME280;18597;48.328;7.932;2023-02-13T00:09:37;101441.72;;;2.57;100.00
32083;BME280;18597;48.328;7.932;2023-02-13T00:12:05;101441.69;;;2.60;100.00
32083;BME280;18597;48.328;7.932;2023-02-13T00:14:36;101437.06;;;3.03;100.00
32083;BME280;18597;48.328;7.932;2023-02-13T00:17:03;101432.34;;;3.47;100.00
32083;BME280;18597;48.328;7.932;2023-02-13T00:19:29;101433.03;;;3.55;100.00
32083;BME280;18597;48.328;7.932;2023-02-13T00:21:55;101429.06;;;3.72;100.00
32083;BME280;18597;48.328;7.932;2023-02-13T00:24:20;101438.00;;;3.97;100.00
32083;BME280;18597;48.328;7.932;2023-02-13T00:26:46;101435.34;;;4.27;100.00
32083;BME280;18597;48.328;7.932;2023-02-13T00:29:12;101425.16;;;4.42;100.00
32083;BME280;18597;48.328;7.932;2023-02-13T00:31:38;101430.69;;;4.35;100.00
32083;BME280;18597;48.328;7.932;2023-02-13T00:34:04;101440.91;;;4.47;100.00
32083;BME280;18597;48.328;7.932;2023-02-13T00:36:30;101440.16;;;4.42;100.00
32083;BME280;18597;48.328;7.932;2023-02-13T00:38:55;101439.78;;;4.54;100.00
32083;BME280;18597;48.328;7.932;2023-02-13T00:41:22;101435.91;;;4.36;100.00
32083;BME280;18597;48.328;7.932;2023-02-13T00:43:48;101438.22;;;4.19;100.00
32083;BME280;18597;48.328;7.932;2023-02-13T00:46:16;101442.16;;;4.06;100.00
32083;BME280;18597;48.328;7.932;2023-02-13T00:48:42;101435.22;;;3.72;100.00
32083;BME280;18597;48.328;7.932;2023-02-13T00:51:09;101441.00;;;3.21;100.00
32083;BME280;18597;48.328;7.932;2023-02-13T00:53:36;101442.22;;;2.74;100.00
32083;BME280;18597;48.328;7.932;2023-02-13T00:56:04;101443.13;;;2.36;100.00
32083;BME280;18597;48.328;7.932;2023-02-13T00:58:30;101447.88;;;2.18;100.00
32083;BME280;18597;48.328;7.932;2023-02-13T01:00:56;101448.06;;;2.11;100.00
32083;BME280;18597;48.328;7.932;2023-02-13T01:03:22;101440.63;;;1.88;100.00
32083;BME280;18597;48.328;7.932;2023-02-13T01:05:49;101445.34;;;1.72;100.00
32083;BME280;18597;48.328;7.932;2023-02-13T01:08:17;101445.84;;;1.48;100.00
32083;BME280;18597;48.328;7.932;2023-02-13T01:10:46;101452.16;;;1.39;100.00
32083;BME280;18597;48.328;7.932;2023-02-13T01:13:14;101460.34;;;1.24;100.00
32083;BME280;18597;48.328;7.932;2023-02-13T01:15:41;101455.69;;;1.38;100.00
32083;BME280;18597;48.328;7.932;2023-02-13T01:18:08;101451.88;;;1.54;100.00
32083;BME280;18597;48.328;7.932;2023-02-13T01:20:34;101448.69;;;1.82;100.00
32083;BME280;18597;48.328;7.932;2023-02-13T01:23:00;101453.59;;;1.99;100.00
32083;BME280;18597;48.328;7.932;2023-02-13T01:25:25;101457.72;;;2.12;100.00
32083;BME280;18597;48.328;7.932;2023-02-13T01:27:52;101455.94;;;2.12;100.00
32083;BME280;18597;48.328;7.932;2023-02-13T01:30:19;101461.28;;;2.09;100.00
32083;BME280;18597;48.328;7.932;2023-02-13T01:32:46;101461.81;;;2.25;100.00
32083;BME280;18597;48.328;7.932;2023-02-13T01:35:13;101447.22;;;2.09;100.00
32083;BME280;18597;48.328;7.932;2023-02-13T01:37:40;101448.81;;;2.16;100.00
32083;BME280;18597;48.328;7.932;2023-02-13T01:40:10;101454.06;;;2.17;100.00
32083;BME280;18597;48.328;7.932;2023-02-13T01:42:37;101452.19;;;2.22;100.00
32083;BME280;18597;48.328;7.932;2023-02-13T01:45:28;101447.25;;;2.07;100.00
32083;BME280;18597;48.328;7.932;2023-02-13T01:48:18;101455.78;;;2.20;100.00
32083;BME280;18597;48.328;7.932;2023-02-13T01:50:56;101450.69;;;2.11;100.00
32083;BME280;18597;48.328;7.932;2023-02-13T01:54:02;101448.47;;;1.92;100.00
32083;BME280;18597;48.328;7.932;2023-02-13T01:56:26;101445.06;;;1.86;100.00
32083;BME280;18597;48.328;7.932;2023-02-13T01:59:00;101450.47;;;1.80;100.00
32083;BME280;18597;48.328;7.932;2023-02-13T02:01:28;101458.88;;;1.55;100.00
32083;BME280;18597;48.328;7.932;2023-02-13T02:04:03;101455.66;;;1.39;100.00
32083;BME280;18597;48.328;7.932;2023-02-13T02:06:49;101464.91;;;1.13;100.00
32083;BME280;18597;48.328;7.932;2023-02-13T02:09:21;101466.88;;;1.01;100.00
32083;BME280;18597;48.328;7.932;2023-02-13T02:11:59;101462.34;;;1.09;100.00
32083;BME280;18597;48.328;7.932;2023-02-13T02:14:26;101457.75;;;1.22;100.00
32083;BME280;18597;48.328;7.932;2023-02-13T02:16:53;101452.09;;;1.44;100.00
32083;BME280;18597;48.328;7.932;2023-02-13T02:19:48;101448.72;;;1.34;100.00
32083;BME280;18597;48.328;7.932;2023-02-13T02:26:08;101438.06;;;1.42;100.00
32083;BME280;18597;48.328;7.932;2023-02-13T02:29:17;101445.06;;;1.43;100.00
32083;BME280;18597;48.328;7.932;2023-02-13T02:32:23;101434.63;;;1.38;100.00
32083;BME280;18597;48.328;7.932;2023-02-13T02:35:22;101435.59;;;1.32;100.00
32083;BME280;18597;48.328;7.932;2023-02-13T02:43:59;101449.69;;;0.79;100.00
32083;BME280;18597;48.328;7.932;2023-02-13T02:46:38;101446.19;;;0.78;100.00
32083;BME280;18597;48.328;7.932;2023-02-13T02:49:31;101443.16;;;0.49;100.00
32083;BME280;18597;48.328;7.932;2023-02-13T02:52:38;101451.97;;;0.45;100.00
32083;BME280;18597;48.328;7.932;2023-02-13T02:55:34;101448.78;;;0.81;100.00
32083;BME280;18597;48.328;7.932;2023-02-13T02:58:24;101454.13;;;0.75;100.00
32083;BME280;18597;48.328;7.932;2023-02-13T03:01:16;101460.53;;;0.59;100.00
32083;BME280;18597;48.328;7.932;2023-02-13T03:04:03;101454.50;;;0.52;100.00
32083;BME280;18597;48.328;7.932;2023-02-13T03:06:57;101451.56;;;0.72;100.00
32083;BME280;18597;48.328;7.932;2023-02-13T03:09:38;101449.13;;;0.59;100.00
32083;BME280;18597;48.328;7.932;2023-02-13T03:12:35;101449.97;;;0.62;100.00
32083;BME280;18597;48.328;7.932;2023-02-13T03:15:25;101452.41;;;0.74;100.00
32083;BME280;18597;48.328;7.932;2023-02-13T03:17:52;101457.66;;;0.74;100.00
32083;BME280;18597;48.328;7.932;2023-02-13T03:20:54;101452.41;;;0.74;100.00
32083;BME280;18597;48.328;7.932;2023-02-13T03:23:59;101463.97;;;0.64;100.00
32083;BME280;18597;48.328;7.932;2023-02-13T03:29:46;101468.41;;;0.59;100.00
32083;BME280;18597;48.328;7.932;2023-02-13T03:36:07;101465.00;;;0.54;100.00
32083;BME280;18597;48.328;7.932;2023-02-13T03:39:20;101469.44;;;0.50;100.00
32083;BME280;18597;48.328;7.932;2023-02-13T03:44:38;101475.66;;;0.43;100.00
32083;BME280;18597;48.328;7.932;2023-02-13T03:47:08;101472.25;;;0.37;100.00
32083;BME280;18597;48.328;7.932;2023-02-13T03:49:43;101475.84;;;0.33;100.00
32083;BME280;18597;48.328;7.932;2023-02-13T03:52:56;101473.25;;;0.28;100.00
32083;BME280;18597;48.328;7.932;2023-02-13T03:55:31;101477.84;;;0.15;100.00
32083;BME280;18597;48.328;7.932;2023-02-13T03:58:25;101477.41;;;-0.20;100.00
32083;BME280;18597;48.328;7.932;2023-02-13T04:01:17;101483.41;;;-0.11;100.00
32083;BME280;18597;48.328;7.932;2023-02-13T04:06:58;101485.88;;;0.03;100.00
32083;BME280;18597;48.328;7.932;2023-02-13T04:09:27;101480.53;;;0.09;100.00
32083;BME280;18597;48.328;7.932;2023-02-13T04:12:17;101484.91;;;0.10;100.00
32083;BME280;18597;48.328;7.932;2023-02-13T04:14:56;101484.06;;;0.05;100.00
32083;BME280;18597;48.328;7.932;2023-02-13T04:17:30;101479.66;;;0.09;100.00
32083;BME280;18597;48.328;7.932;2023-02-13T04:19:58;101484.84;;;0.13;100.00
32083;BME280;18597;48.328;7.932;2023-02-13T04:22:25;101490.16;;;0.10;100.00
32083;BME280;18597;48.328;7.932;2023-02-13T04:24:50;101488.53;;;0.00;100.00
32083;BME280;18597;48.328;7.932;2023-02-13T04:27:16;101489.41;;;0.01;100.00
32083;BME280;18597;48.328;7.932;2023-02-13T04:29:43;101493.75;;;0.03;100.00
32083;BME280;18597;48.328;7.932;2023-02-13T04:32:10;101496.28;;;0.11;100.00
32083;BME280;18597;48.328;7.932;2023-02-13T04:34:36;101487.47;;;0.16;100.00
32083;BME280;18597;48.328;7.932;2023-02-13T04:37:02;101494.50;;;0.13;100.00
32083;BME280;18597;48.328;7.932;2023-02-13T04:39:28;101497.34;;;-0.04;100.00
32083;BME280;18597;48.328;7.932;2023-02-13T04:41:54;101496.84;;;-0.38;100.00
32083;BME280;18597;48.328;7.932;2023-02-13T04:44:20;101498.78;;;-0.52;100.00
32083;BME280;18597;48.328;7.932;2023-02-13T04:46:45;101505.06;;;-0.70;100.00
32083;BME280;18597;48.328;7.932;2023-02-13T04:49:11;101506.78;;;-0.66;100.00
32083;BME280;18597;48.328;7.932;2023-02-13T04:51:38;101502.44;;;-0.70;100.00
32083;BME280;18597;48.328;7.932;2023-02-13T04:54:03;101502.63;;;-0.90;100.00
32083;BME280;18597;48.328;7.932;2023-02-13T04:56:29;101506.22;;;-1.02;100.00
32083;BME280;18597;48.328;7.932;2023-02-13T04:58:55;101505.22;;;-0.89;100.00
32083;BME280;18597;48.328;7.932;2023-02-13T05:01:22;101497.28;;;-0.84;100.00
32083;BME280;18597;48.328;7.932;2023-02-13T05:03:48;101501.69;;;-0.85;100.00
32083;BME280;18597;48.328;7.932;2023-02-13T05:06:13;101496.50;;;-0.92;100.00
32083;BME280;18597;48.328;7.932;2023-02-13T05:08:39;101504.44;;;-1.00;100.00
32083;BME280;18597;48.328;7.932;2023-02-13T05:11:06;101496.59;;;-1.03;100.00
32083;BME280;18597;48.328;7.932;2023-02-13T05:13:32;101490.16;;;-0.68;100.00
32083;BME280;18597;48.328;7.932;2023-02-13T05:15:58;101489.47;;;-0.87;100.00
32083;BME280;18597;48.328;7.932;2023-02-13T05:18:24;101490.31;;;-0.82;100.00
32083;BME280;18597;48.328;7.932;2023-02-13T05:20:50;101477.91;;;-0.69;100.00
32083;BME280;18597;48.328;7.932;2023-02-13T05:23:36;101482.09;;;-0.50;100.00
32083;BME280;18597;48.328;7.932;2023-02-13T05:26:02;101485.56;;;-0.46;100.00
32083;BME280;18597;48.328;7.932;2023-02-13T05:28:28;101480.44;;;-0.59;100.00
32083;BME280;18597;48.328;7.932;2023-02-13T05:31:14;101487.75;;;-0.90;100.00
32083;BME280;18597;48.328;7.932;2023-02-13T05:33:39;101490.28;;;-0.84;100.00
32083;BME280;18597;48.328;7.932;2023-02-13T05:36:06;101496.59;;;-1.03;100.00
32083;BME280;18597;48.328;7.932;2023-02-13T05:38:32;101497.56;;;-1.15;100.00
32083;BME280;18597;48.328;7.932;2023-02-13T05:40:59;101499.41;;;-1.27;100.00
32083;BME280;18597;48.328;7.932;2023-02-13T05:43:26;101502.03;;;-1.27;100.00
32083;BME280;18597;48.328;7.932;2023-02-13T05:46:02;101517.81;;;-1.33;100.00
32083;BME280;18597;48.328;7.932;2023-02-13T05:48:29;101512.56;;;-1.36;100.00
32083;BME280;18597;48.328;7.932;2023-02-13T05:50:55;101512.63;;;-1.46;100.00
32083;BME280;18597;48.328;7.932;2023-02-13T05:53:21;101510.06;;;-1.55;100.00
32083;BME280;18597;48.328;7.932;2023-02-13T05:55:47;101516.19;;;-1.56;100.00
32083;BME280;18597;48.328;7.932;2023-02-13T05:58:12;101510.94;;;-1.50;100.00
32083;BME280;18597;48.328;7.932;2023-02-13T06:00:38;101508.28;;;-1.51;100.00
32083;BME280;18597;48.328;7.932;2023-02-13T06:03:04;101514.34;;;-1.35;100.00
32083;BME280;18597;48.328;7.932;2023-02-13T06:05:30;101515.09;;;-1.18;100.00
32083;BME280;18597;48.328;7.932;2023-02-13T06:07:55;101519.47;;;-1.23;100.00
32083;BME280;18597;48.328;7.932;2023-02-13T06:10:21;101521.31;;;-1.34;100.00
32083;BME280;18597;48.328;7.932;2023-02-13T06:12:47;101524.91;;;-1.49;100.00
32083;BME280;18597;48.328;7.932;2023-02-13T06:15:13;101525.78;;;-1.53;100.00
32083;BME280;18597;48.328;7.932;2023-02-13T06:17:38;101536.31;;;-1.56;100.00
32083;BME280;18597;48.328;7.932;2023-02-13T06:20:06;101524.94;;;-1.60;100.00
32083;BME280;18597;48.328;7.932;2023-02-13T06:22:32;101524.13;;;-1.68;100.00
32083;BME280;18597;48.328;7.932;2023-02-13T06:24:57;101523.28;;;-1.72;100.00
32083;BME280;18597;48.328;7.932;2023-02-13T06:27:23;101529.38;;;-1.68;100.00
32083;BME280;18597;48.328;7.932;2023-02-13T06:29:49;101531.16;;;-1.72;100.00
32083;BME280;18597;48.328;7.932;2023-02-13T06:32:15;101529.38;;;-1.68;100.00
32083;BME280;18597;48.328;7.932;2023-02-13T06:34:40;101530.09;;;-1.40;100.00
32083;BME280;18597;48.328;7.932;2023-02-13T06:37:06;101537.09;;;-1.42;100.00
32083;BME280;18597;48.328;7.932;2023-02-13T06:39:32;101533.63;;;-1.52;100.00
32083;BME280;18597;48.328;7.932;2023-02-13T06:41:58;101538.06;;;-1.60;100.00
32083;BME280;18597;48.328;7.932;2023-02-13T06:44:24;101537.16;;;-1.50;100.00
32083;BME280;18597;48.328;7.932;2023-02-13T06:46:49;101544.13;;;-1.52;100.00
32083;BME280;18597;48.328;7.932;2023-02-13T06:49:15;101538.88;;;-1.49;100.00
32083;BME280;18597;48.328;7.932;2023-02-13T06:51:41;101539.72;;;-1.45;100.00
32083;BME280;18597;48.328;7.932;2023-02-13T06:54:07;101538.84;;;-1.41;100.00
32083;BME280;18597;48.328;7.932;2023-02-13T06:56:33;101546.59;;;-1.29;100.00
32083;BME280;18597;48.328;7.932;2023-02-13T06:58:58;101541.38;;;-1.29;100.00
32083;BME280;18597;48.328;7.932;2023-02-13T07:01:24;101544.00;;;-1.27;100.00
32083;BME280;18597;48.328;7.932;2023-02-13T07:03:50;101542.19;;;-1.19;100.00
32083;BME280;18597;48.328;7.932;2023-02-13T07:06:18;101538.69;;;-1.18;100.00
32083;BME280;18597;48.328;7.932;2023-02-13T07:08:44;101546.50;;;-1.09;100.00
32083;BME280;18597;48.328;7.932;2023-02-13T07:11:17;101556.13;;;-1.11;100.00
32083;BME280;18597;48.328;7.932;2023-02-13T07:13:44;101561.22;;;-0.90;100.00
32083;BME280;18597;48.328;7.932;2023-02-13T07:16:09;101558.22;;;-0.47;100.00
32083;BME280;18597;48.328;7.932;2023-02-13T07:18:35;101557.34;;;0.33;100.00
32083;BME280;18597;48.328;7.932;2023-02-13T07:21:01;101550.44;;;1.89;100.00
32083;BME280;18597;48.328;7.932;2023-02-13T07:23:27;101551.53;;;3.02;100.00
32083;BME280;18597;48.328;7.932;2023-02-13T07:25:53;101552.38;;;4.05;100.00
32083;BME280;18597;48.328;7.932;2023-02-13T07:28:18;101565.25;;;5.33;100.00
32083;BME280;18597;48.328;7.932;2023-02-13T07:30:44;101566.94;;;6.60;100.00
32083;BME280;18597;48.328;7.932;2023-02-13T07:33:10;101566.03;;;7.69;100.00
32083;BME280;18597;48.328;7.932;2023-02-13T07:35:36;101561.53;;;8.51;94.21
32083;BME280;18597;48.328;7.932;2023-02-13T07:38:03;101565.78;;;9.29;92.49
32083;BME280;18597;48.328;7.932;2023-02-13T07:40:29;101559.81;;;10.27;80.04
32083;BME280;18597;48.328;7.932;2023-02-13T07:42:59;101563.63;;;11.04;73.65
32083;BME280;18597;48.328;7.932;2023-02-13T07:45:25;101562.81;;;11.93;68.95
32083;BME280;18597;48.328;7.932;2023-02-13T07:47:53;101560.44;;;12.74;58.21
32083;BME280;18597;48.328;7.932;2023-02-13T07:50:19;101568.41;;;13.44;54.74
32083;BME280;18597;48.328;7.932;2023-02-13T07:52:55;101562.97;;;14.24;48.88
32083;BME280;18597;48.328;7.932;2023-02-13T07:55:21;101564.22;;;14.82;43.50
32083;BME280;18597;48.328;7.932;2023-02-13T07:57:48;101556.34;;;15.63;41.61
32083;BME280;18597;48.328;7.932;2023-02-13T08:00:15;101552.94;;;16.30;39.46
32083;BME280;18597;48.328;7.932;2023-02-13T08:02:41;101550.47;;;17.05;37.83
32083;BME280;18597;48.328;7.932;2023-02-13T08:05:07;101545.44;;;17.97;36.27
32083;BME280;18597;48.328;7.932;2023-02-13T08:07:34;101542.00;;;18.77;34.89
32083;BME280;18597;48.328;7.932;2023-02-13T08:10:00;101529.13;;;19.38;33.10
32083;BME280;18597;48.328;7.932;2023-02-13T08:12:46;101539.25;;;19.94;31.99
32083;BME280;18597;48.328;7.932;2023-02-13T08:15:14;101528.53;;;19.93;31.93
32083;BME280;18597;48.328;7.932;2023-02-13T08:17:40;101535.63;;;20.23;30.91
32083;BME280;18597;48.328;7.932;2023-02-13T08:20:07;101532.44;;;20.74;30.39
32083;BME280;18597;48.328;7.932;2023-02-13T08:22:35;101526.84;;;21.21;30.17
32083;BME280;18597;48.328;7.932;2023-02-13T08:25:02;101529.06;;;20.90;29.20
32083;BME280;18597;48.328;7.932;2023-02-13T08:27:28;101519.28;;;20.33;30.10
32083;BME280;18597;48.328;7.932;2023-02-13T08:29:56;101524.38;;;18.52;31.96
32083;BME280;18597;48.328;7.932;2023-02-13T08:32:23;101525.28;;;15.46;36.90
32083;BME280;18597;48.328;7.932;2023-02-13T08:34:49;101526.81;;;12.69;41.84
32083;BME280;18597;48.328;7.932;2023-02-13T08:37:15;101523.75;;;10.68;46.90
32083;BME280;18597;48.328;7.932;2023-02-13T08:39:41;101530.00;;;9.15;51.02
32083;BME280;18597;48.328;7.932;2023-02-13T08:42:07;101533.91;;;7.94;56.96
32083;BME280;18597;48.328;7.932;2023-02-13T08:44:33;101526.56;;;6.95;63.40
32083;BME280;18597;48.328;7.932;2023-02-13T08:46:59;101526.00;;;6.19;69.93
32083;BME280;18597;48.328;7.932;2023-02-13T08:49:29;101527.25;;;5.58;77.65
32083;BME280;18597;48.328;7.932;2023-02-13T08:51:55;101532.22;;;5.16;82.54
32083;BME280;18597;48.328;7.932;2023-02-13T08:54:20;101534.03;;;4.88;87.83
32083;BME280;18597;48.328;7.932;2023-02-13T08:56:46;101534.91;;;4.59;92.16
32083;BME280;18597;48.328;7.932;2023-02-13T08:59:12;101532.91;;;4.37;96.73
32083;BME280;18597;48.328;7.932;2023-02-13T09:01:38;101531.47;;;4.27;100.00
32083;BME280;18597;48.328;7.932;2023-02-13T09:04:04;101527.66;;;4.06;100.00
32083;BME280;18597;48.328;7.932;2023-02-13T09:06:30;101528.13;;;3.89;100.00
32083;BME280;18597;48.328;7.932;2023-02-13T09:08:55;101536.19;;;3.85;100.00
32083;BME280;18597;48.328;7.932;2023-02-13T09:11:21;101527.44;;;3.83;100.00
32083;BME280;18597;48.328;7.932;2023-02-13T09:13:51;101525.75;;;3.80;100.00
32083;BME280;18597;48.328;7.932;2023-02-13T09:16:17;101530.34;;;3.74;100.00
32083;BME280;18597;48.328;7.932;2023-02-13T09:18:46;101533.63;;;3.82;100.00
32083;BME280;18597;48.328;7.932;2023-02-13T09:21:13;101524.00;;;3.79;100.00
32083;BME280;18597;48.328;7.932;2023-02-13T09:23:40;101520.41;;;3.82;100.00
32083;BME280;18597;48.328;7.932;2023-02-13T09:26:12;101525.53;;;3.88;100.00
32083;BME280;18597;48.328;7.932;2023-02-13T09:28:39;101519.66;;;3.78;100.00
32083;BME280;18597;48.328;7.932;2023-02-13T09:31:07;101521.28;;;3.82;100.00
32083;BME280;18597;48.328;7.932;2023-02-13T09:33:33;101521.22;;;3.84;100.00
32083;BME280;18597;48.328;7.932;2023-02-13T09:36:04;101517.59;;;3.88;100.00
32083;BME280;18597;48.328;7.932;2023-02-13T09:38:31;101521.00;;;3.93;100.00
32083;BME280;18597;48.328;7.932;2023-02-13T09:41:21;101531.63;;;3.90;100.00
32083;BME280;18597;48.328;7.932;2023-02-13T09:43:59;101527.31;;;3.87;100.00
32083;BME280;18597;48.328;7.932;2023-02-13T09:46:35;101525.59;;;3.85;100.00
32083;BME280;18597;48.328;7.932;2023-02-13T09:49:14;101520.47;;;3.80;100.00
32083;BME280;18597;48.328;7.932;2023-02-13T09:51:43;101523.06;;;3.82;100.00
32083;BME280;18597;48.328;7.932;2023-02-13T09:54:15;101516.81;;;3.84;100.00
32083;BME280;18597;48.328;7.932;2023-02-13T09:57:13;101521.00;;;3.92;100.00
32083;BME280;18597;48.328;7.932;2023-02-13T10:00:12;101516.81;;;3.84;100.00
32083;BME280;18597;48.328;7.932;2023-02-13T10:05:55;101519.16;;;3.95;100.00
32083;BME280;18597;48.328;7.932;2023-02-13T10:14:22;101517.88;;;4.10;100.00
32083;BME280;18597;48.328;7.932;2023-02-13T10:16:58;101510.75;;;4.12;100.00
32083;BME280;18597;48.328;7.932;2023-02-13T10:22:28;101506.69;;;4.30;100.00
32083;BME280;18597;48.328;7.932;2023-02-13T10:25:16;101503.84;;;4.36;100.00
32083;BME280;18597;48.328;7.932;2023-02-13T10:27:53;101510.69;;;4.43;100.00
32083;BME280;18597;48.328;7.932;2023-02-13T10:30:55;101510.19;;;4.60;100.00
32083;BME280;18597;48.328;7.932;2023-02-13T10:33:35;101508.94;;;4.71;100.00
32083;BME280;18597;48.328;7.932;2023-02-13T10:36:17;101508.25;;;4.93;100.00
32083;BME280;18597;48.328;7.932;2023-02-13T10:41:52;101496.50;;;5.01;100.00
32083;BME280;18597;48.328;7.932;2023-02-13T10:48:28;101495.31;;;5.10;100.00
32083;BME280;18597;48.328;7.932;2023-02-13T10:51:10;101487.25;;;5.13;100.00
32083;BME280;18597;48.328;7.932;2023-02-13T10:54:25;101490.69;;;5.17;100.00
32083;BME280;18597;48.328;7.932;2023-02-13T10:57:21;101478.78;;;5.28;100.00
32083;BME280;18597;48.328;7.932;2023-02-13T11:02:31;101480.38;;;5.34;100.00
32083;BME280;18597;48.328;7.932;2023-02-13T11:05:12;101467.78;;;5.41;100.00
32083;BME280;18597;48.328;7.932;2023-02-13T11:07:39;101474.13;;;5.37;100.00
32083;BME280;18597;48.328;7.932;2023-02-13T11:10:18;101470.97;;;5.50;100.00
32083;BME280;18597;48.328;7.932;2023-02-13T11:12:45;101470.47;;;5.64;100.00
32083;BME280;18597;48.328;7.932;2023-02-13T11:15:29;101465.88;;;5.69;100.00
32083;BME280;18597;48.328;7.932;2023-02-13T11:18:00;101458.72;;;5.71;100.00
32083;BME280;18597;48.328;7.932;2023-02-13T11:20:38;101460.38;;;5.75;100.00
32083;BME280;18597;48.328;7.932;2023-02-13T11:29:00;101464.47;;;5.84;100.00
32083;BME280;18597;48.328;7.932;2023-02-13T11:31:32;101459.66;;;5.95;100.00
32083;BME280;18597;48.328;7.932;2023-02-13T11:34:21;101463.88;;;6.01;100.00
32083;BME280;18597;48.328;7.932;2023-02-13T11:36:52;101456.59;;;6.06;100.00
32083;BME280;18597;48.328;7.932;2023-02-13T11:39:22;101464.50;;;6.07;100.00
32083;BME280;18597;48.328;7.932;2023-02-13T11:41:51;101456.41;;;6.10;100.00
32083;BME280;18597;48.328;7.932;2023-02-13T11:44:28;101459.91;;;6.13;100.00
32083;BME280;18597;48.328;7.932;2023-02-13T11:46:59;101461.84;;;6.07;100.00
32083;BME280;18597;48.328;7.932;2023-02-13T11:49:30;101462.00;;;6.03;100.00
32083;BME280;18597;48.328;7.932;2023-02-13T11:52:01;101453.47;;;6.18;100.00
32083;BME280;18597;48.328;7.932;2023-02-13T11:57:36;101455.69;;;6.07;100.00
32083;BME280;18597;48.328;7.932;2023-02-13T12:00:32;101449.91;;;5.96;100.00
32083;BME280;18597;48.328;7.932;2023-02-13T12:03:24;101454.88;;;6.05;100.00
32083;BME280;18597;48.328;7.932;2023-02-13T12:08:47;101454.13;;;6.01;100.00
32083;BME280;18597;48.328;7.932;2023-02-13T12:14:13;101448.88;;;6.00;100.00
32083;BME280;18597;48.328;7.932;2023-02-13T12:16:48;101450.13;;;5.90;100.00
32083;BME280;18597;48.328;7.932;2023-02-13T12:19:23;101455.41;;;5.91;100.00
32083;BME280;18597;48.328;7.932;2023-02-13T12:26:00;101466.59;;;5.74;100.00
32083;BME280;18597;48.328;7.932;2023-02-13T12:32:20;101452.81;;;5.88;100.00
32083;BME280;18597;48.328;7.932;2023-02-13T12:38:21;101460.25;;;5.78;100.00
32083;BME280;18597;48.328;7.932;2023-02-13T12:41:37;101459.38;;;5.78;100.00
32083;BME280;18597;48.328;7.932;2023-02-13T12:44:21;101458.50;;;5.77;100.00
32083;BME280;18597;48.328;7.932;2023-02-13T12:47:16;101457.31;;;5.86;100.00
32083;BME280;18597;48.328;7.932;2023-02-13T13:00:12;101452.69;;;5.93;100.00
32083;BME280;18597;48.328;7.932;2023-02-13T13:03:24;101455.19;;;5.96;100.00
32083;BME280;18597;48.328;7.932;2023-02-13T13:06:20;101452.53;;;5.96;100.00
32083;BME280;18597;48.328;7.932;2023-02-13T13:09:35;101454.59;;;5.88;100.00
32083;BME280;18597;48.328;7.932;2023-02-13T13:12:45;101451.00;;;5.89;100.00
32083;BME280;18597;48.328;7.932;2023-02-13T13:15:45;101440.88;;;5.76;100.00
32083;BME280;18597;48.328;7.932;2023-02-13T13:18:50;101442.19;;;5.88;100.00
32083;BME280;18597;48.328;7.932;2023-02-13T13:27:00;101427.41;;;5.81;100.00
32083;BME280;18597;48.328;7.932;2023-02-13T13:29:52;101433.50;;;5.84;100.00
32083;BME280;18597;48.328;7.932;2023-02-13T13:32:20;101428.00;;;5.91;100.00
32083;BME280;18597;48.328;7.932;2023-02-13T13:34:47;101421.97;;;5.85;100.00
32083;BME280;18597;48.328;7.932;2023-02-13T13:40:02;101419.47;;;5.81;100.00
32083;BME280;18597;48.328;7.932;2023-02-13T13:42:55;101415.78;;;5.85;100.00
32083;BME280;18597;48.328;7.932;2023-02-13T13:48:30;101423.75;;;5.85;100.00
32083;BME280;18597;48.328;7.932;2023-02-13T13:50:58;101410.41;;;5.87;100.00
32083;BME280;18597;48.328;7.932;2023-02-13T13:53:24;101423.63;;;5.88;100.00
32083;BME280;18597;48.328;7.932;2023-02-13T13:58:46;101416.50;;;5.90;100.00
32083;BME280;18597;48.328;7.932;2023-02-13T14:06:28;101408.97;;;5.78;100.00
32083;BME280;18597;48.328;7.932;2023-02-13T14:09:38;101405.84;;;5.67;100.00
32083;BME280;18597;48.328;7.932;2023-02-13T14:14:59;101410.25;;;5.68;100.00
32083;BME280;18597;48.328;7.932;2023-02-13T14:17:49;101410.34;;;5.65;100.00
32083;BME280;18597;48.328;7.932;2023-02-13T14:20:49;101398.66;;;5.47;100.00
32083;BME280;18597;48.328;7.932;2023-02-13T14:23:45;101400.66;;;5.40;100.00
32083;BME280;18597;48.328;7.932;2023-02-13T14:29:01;101408.25;;;5.49;100.00
32083;BME280;18597;48.328;7.932;2023-02-13T14:31:40;101416.88;;;5.56;100.00
32083;BME280;18597;48.328;7.932;2023-02-13T14:34:18;101411.91;;;5.70;100.00
32083;BME280;18597;48.328;7.932;2023-02-13T14:37:06;101406.56;;;5.72;100.00
32083;BME280;18597;48.328;7.932;2023-02-13T14:39:42;101416.28;;;5.71;100.00
32083;BME280;18597;48.328;7.932;2023-02-13T14:42:27;101413.78;;;5.68;100.00
32083;BME280;18597;48.328;7.932;2023-02-13T14:44:57;101412.34;;;5.58;100.00
32083;BME280;18597;48.328;7.932;2023-02-13T14:47:34;101412.88;;;5.44;100.00
32083;BME280;18597;48.328;7.932;2023-02-13T14:50:04;101407.09;;;5.33;100.00
32083;BME280;18597;48.328;7.932;2023-02-13T14:52:36;101407.16;;;5.32;100.00
32083;BME280;18597;48.328;7.932;2023-02-13T14:58:46;101411.56;;;5.06;100.00
32083;BME280;18597;48.328;7.932;2023-02-13T15:01:02;101406.75;;;4.92;100.00
32083;BME280;18597;48.328;7.932;2023-02-13T15:03:53;101407.69;;;4.90;100.00
32083;BME280;18597;48.328;7.932;2023-02-13T15:06:28;101403.59;;;4.81;100.00
32083;BME280;18597;48.328;7.932;2023-02-13T15:09:02;101410.97;;;4.71;100.00
32083;BME280;18597;48.328;7.932;2023-02-13T15:11:44;101410.66;;;4.54;100.00